FCN587 SOCA-MSLP
Flight info
| Callsign | FCN587 |
|---|---|
| Flight time | 4h 59m |
| Altitude | 34000 |
| Route | CYR UG443 SIDAM/N0460F360 UG443 CBC UP671 SPP UP543 MGA UA317 UMIPI UMIPI2M |
| Aircraft | A321/M-SDE3FGHIRWY/LB1 |
Departure
| Time | 2026-04-21 21:56 |
|---|---|
| Airport | Cayenne – Félix Eboué Airport (SOCA) |
Arrival
| Time | 2026-04-22 02:55 |
|---|---|
| Airport | El Salvador International Airport Saint Óscar Arnulfo Romero y Galdámez (MSLP) |
| Time | Latitude | Longitude | Altitude | Speed | Heading |
|---|---|---|---|---|---|
| 2026-04-21 21:36 | 4.82140 | -52.36359 | 28 ft | 0 kts | 343° |
| 2026-04-21 21:46 | 4.82130 | -52.36356 | 29 ft | 3 kts | 337° |
| 2026-04-21 21:46 | 4.82113 | -52.36346 | 29 ft | 3 kts | 316° |
| 2026-04-21 21:46 | 4.82101 | -52.36331 | 29 ft | 3 kts | 291° |
| 2026-04-21 21:46 | 4.82096 | -52.36312 | 29 ft | 3 kts | 270° |
| 2026-04-21 21:47 | 4.82098 | -52.36292 | 29 ft | 3 kts | 257° |
| 2026-04-21 21:47 | 4.82104 | -52.36272 | 29 ft | 3 kts | 248° |
| 2026-04-21 21:47 | 4.82112 | -52.36254 | 29 ft | 3 kts | 244° |
| 2026-04-21 21:47 | 4.82120 | -52.36236 | 29 ft | 3 kts | 249° |
| 2026-04-21 21:48 | 4.82124 | -52.36227 | 29 ft | 0 kts | 245° |
| 2026-04-21 21:50 | 4.82115 | -52.36244 | 29 ft | 9 kts | 243° |
| 2026-04-21 21:50 | 4.82066 | -52.36257 | 29 ft | 6 kts | 164° |
| 2026-04-21 21:50 | 4.82033 | -52.36247 | 29 ft | 4 kts | 161° |
| 2026-04-21 21:50 | 4.82000 | -52.36230 | 29 ft | 10 kts | 152° |
| 2026-04-21 21:51 | 4.81932 | -52.36246 | 28 ft | 11 kts | 230° |
| 2026-04-21 21:51 | 4.81902 | -52.36308 | 28 ft | 9 kts | 245° |
| 2026-04-21 21:51 | 4.81878 | -52.36366 | 27 ft | 8 kts | 248° |
| 2026-04-21 21:51 | 4.81857 | -52.36414 | 27 ft | 7 kts | 244° |
| 2026-04-21 21:52 | 4.81828 | -52.36474 | 28 ft | 14 kts | 244° |
| 2026-04-21 21:52 | 4.81785 | -52.36564 | 28 ft | 14 kts | 244° |
| 2026-04-21 21:52 | 4.81747 | -52.36645 | 28 ft | 12 kts | 245° |
| 2026-04-21 21:52 | 4.81714 | -52.36716 | 28 ft | 10 kts | 245° |
| 2026-04-21 21:53 | 4.81678 | -52.36794 | 28 ft | 17 kts | 245° |
| 2026-04-21 21:53 | 4.81630 | -52.36900 | 28 ft | 15 kts | 245° |
| 2026-04-21 21:53 | 4.81591 | -52.36985 | 28 ft | 12 kts | 245° |
| 2026-04-21 21:53 | 4.81556 | -52.37058 | 27 ft | 16 kts | 245° |
| 2026-04-21 21:54 | 4.81504 | -52.37169 | 27 ft | 16 kts | 245° |
| 2026-04-21 21:54 | 4.81465 | -52.37253 | 27 ft | 11 kts | 245° |
| 2026-04-21 21:54 | 4.81438 | -52.37320 | 29 ft | 10 kts | 260° |
| 2026-04-21 21:54 | 4.81436 | -52.37404 | 28 ft | 12 kts | 218° |
| 2026-04-21 21:55 | 4.81409 | -52.37378 | 27 ft | 4 kts | 70° |
| 2026-04-21 21:55 | 4.81418 | -52.37357 | 30 ft | 2 kts | 67° |
| 2026-04-21 21:55 | 4.81421 | -52.37351 | 30 ft | 0 kts | 67° |
| 2026-04-21 21:55 | 4.81460 | -52.37270 | 27 ft | 42 kts | 64° |
| 2026-04-21 21:56 | 4.81681 | -52.36802 | 28 ft | 103 kts | 65° |
| 2026-04-21 21:56 | 4.82055 | -52.36002 | 29 ft | 148 kts | 65° |
| 2026-04-21 21:56 | 4.82527 | -52.34987 | 350 ft | 157 kts | 65° |
| 2026-04-21 21:56 | 4.82959 | -52.34043 | 1038 ft | 147 kts | 66° |
| 2026-04-21 21:57 | 4.83394 | -52.33104 | 1533 ft | 150 kts | 65° |
| 2026-04-21 21:57 | 4.83586 | -52.32073 | 1826 ft | 165 kts | 99° |
| 2026-04-21 21:57 | 4.83005 | -52.31030 | 2066 ft | 187 kts | 140° |
| 2026-04-21 21:57 | 4.81729 | -52.30594 | 2244 ft | 210 kts | 182° |
| 2026-04-21 21:58 | 4.80377 | -52.31249 | 2415 ft | 232 kts | 227° |
| 2026-04-21 21:58 | 4.79726 | -52.32778 | 2600 ft | 253 kts | 269° |
| 2026-04-21 21:58 | 4.80060 | -52.34541 | 2893 ft | 269 kts | 290° |
| 2026-04-21 21:58 | 4.80733 | -52.36319 | 3457 ft | 274 kts | 292° |
| 2026-04-21 21:59 | 4.81414 | -52.38105 | 4180 ft | 275 kts | 289° |
| 2026-04-21 21:59 | 4.82000 | -52.39939 | 4861 ft | 278 kts | 286° |
| 2026-04-21 21:59 | 4.82514 | -52.41821 | 5504 ft | 281 kts | 284° |
| 2026-04-21 21:59 | 4.82985 | -52.43731 | 6163 ft | 284 kts | 283° |
| 2026-04-21 22:00 | 4.83437 | -52.45665 | 6801 ft | 286 kts | 283° |
| 2026-04-21 22:00 | 4.83876 | -52.47590 | 7400 ft | 289 kts | 283° |
| 2026-04-21 22:00 | 4.84324 | -52.49557 | 8022 ft | 291 kts | 283° |
| 2026-04-21 22:00 | 4.84779 | -52.51546 | 8634 ft | 294 kts | 283° |
| 2026-04-21 22:01 | 4.85240 | -52.53551 | 9238 ft | 296 kts | 282° |
| 2026-04-21 22:01 | 4.85702 | -52.55565 | 9857 ft | 297 kts | 282° |
| 2026-04-21 22:01 | 4.86171 | -52.57613 | 10193 ft | 309 kts | 283° |
| 2026-04-21 22:01 | 4.86671 | -52.59778 | 10310 ft | 327 kts | 285° |
| 2026-04-21 22:02 | 4.87202 | -52.62061 | 10436 ft | 345 kts | 283° |
| 2026-04-21 22:02 | 4.87760 | -52.64453 | 10647 ft | 357 kts | 283° |
| 2026-04-21 22:02 | 4.88324 | -52.66894 | 11130 ft | 361 kts | 283° |
| 2026-04-21 22:02 | 4.88888 | -52.69361 | 11621 ft | 365 kts | 283° |
| 2026-04-21 22:03 | 4.89458 | -52.71852 | 12124 ft | 368 kts | 283° |
| 2026-04-21 22:03 | 4.90026 | -52.74327 | 12636 ft | 370 kts | 283° |
| 2026-04-21 22:03 | 4.90609 | -52.76852 | 13109 ft | 374 kts | 283° |
| 2026-04-21 22:03 | 4.91200 | -52.79407 | 13589 ft | 378 kts | 283° |
| 2026-04-21 22:04 | 4.91794 | -52.81979 | 14069 ft | 380 kts | 283° |
| 2026-04-21 22:04 | 4.92394 | -52.84573 | 14503 ft | 383 kts | 283° |
| 2026-04-21 22:04 | 4.92997 | -52.87180 | 14973 ft | 385 kts | 283° |
| 2026-04-21 22:04 | 4.93599 | -52.89796 | 15430 ft | 386 kts | 283° |
| 2026-04-21 22:05 | 4.94207 | -52.92429 | 15883 ft | 388 kts | 283° |
| 2026-04-21 22:05 | 4.94816 | -52.95074 | 16330 ft | 390 kts | 283° |
| 2026-04-21 22:05 | 4.95426 | -52.97729 | 16771 ft | 392 kts | 283° |
| 2026-04-21 22:05 | 4.96039 | -53.00397 | 17202 ft | 394 kts | 283° |
| 2026-04-21 22:06 | 4.96656 | -53.03079 | 17622 ft | 395 kts | 283° |
| 2026-04-21 22:06 | 4.97265 | -53.05736 | 18024 ft | 397 kts | 283° |
| 2026-04-21 22:06 | 4.97891 | -53.08475 | 18425 ft | 398 kts | 283° |
| 2026-04-21 22:06 | 4.98503 | -53.11150 | 18768 ft | 400 kts | 283° |
| 2026-04-21 22:07 | 4.99123 | -53.13878 | 19094 ft | 402 kts | 283° |
| 2026-04-21 22:07 | 4.99743 | -53.16611 | 19438 ft | 403 kts | 283° |
| 2026-04-21 22:07 | 5.00365 | -53.19359 | 19765 ft | 405 kts | 283° |
| 2026-04-21 22:07 | 5.00992 | -53.22124 | 20096 ft | 407 kts | 283° |
| 2026-04-21 22:08 | 5.01621 | -53.24889 | 20434 ft | 408 kts | 283° |
| 2026-04-21 22:08 | 5.02257 | -53.27666 | 20759 ft | 409 kts | 283° |
| 2026-04-21 22:08 | 5.02895 | -53.30453 | 21100 ft | 411 kts | 283° |
| 2026-04-21 22:08 | 5.03533 | -53.33256 | 21413 ft | 413 kts | 283° |
| 2026-04-21 22:09 | 5.04170 | -53.36063 | 21718 ft | 414 kts | 283° |
| 2026-04-21 22:09 | 5.04811 | -53.38888 | 22026 ft | 416 kts | 283° |
| 2026-04-21 22:09 | 5.05458 | -53.41725 | 22324 ft | 418 kts | 283° |
| 2026-04-21 22:09 | 5.06100 | -53.44535 | 22619 ft | 420 kts | 283° |
| 2026-04-21 22:10 | 5.06753 | -53.47399 | 22919 ft | 422 kts | 283° |
| 2026-04-21 22:10 | 5.07407 | -53.50272 | 23221 ft | 423 kts | 283° |
| 2026-04-21 22:10 | 5.08060 | -53.53150 | 23508 ft | 425 kts | 283° |
| 2026-04-21 22:10 | 5.08717 | -53.56049 | 23749 ft | 427 kts | 283° |
| 2026-04-21 22:11 | 5.09377 | -53.58959 | 23982 ft | 429 kts | 283° |
| 2026-04-21 22:11 | 5.10038 | -53.61878 | 24216 ft | 431 kts | 282° |
| 2026-04-21 22:11 | 5.10702 | -53.64818 | 24455 ft | 433 kts | 282° |
| 2026-04-21 22:11 | 5.11371 | -53.67764 | 24682 ft | 434 kts | 282° |
| 2026-04-21 22:12 | 5.12043 | -53.70728 | 24912 ft | 436 kts | 282° |
| 2026-04-21 22:12 | 5.12717 | -53.73691 | 25160 ft | 437 kts | 282° |
| 2026-04-21 22:12 | 5.13398 | -53.76676 | 25365 ft | 440 kts | 282° |
| 2026-04-21 22:12 | 5.14070 | -53.79627 | 25586 ft | 441 kts | 282° |
| 2026-04-21 22:13 | 5.14754 | -53.82638 | 25782 ft | 444 kts | 282° |
| 2026-04-21 22:13 | 5.15438 | -53.85666 | 25992 ft | 446 kts | 282° |
| 2026-04-21 22:13 | 5.16123 | -53.88699 | 26198 ft | 447 kts | 282° |
| 2026-04-21 22:13 | 5.16810 | -53.91744 | 26413 ft | 449 kts | 282° |
| 2026-04-21 22:14 | 5.17503 | -53.94809 | 26632 ft | 451 kts | 282° |
| 2026-04-21 22:14 | 5.18199 | -53.97885 | 26822 ft | 453 kts | 282° |
| 2026-04-21 22:14 | 5.18897 | -54.00971 | 27023 ft | 455 kts | 282° |
| 2026-04-21 22:14 | 5.19599 | -54.04076 | 27222 ft | 457 kts | 282° |
| 2026-04-21 22:15 | 5.20302 | -54.07189 | 27421 ft | 459 kts | 282° |
| 2026-04-21 22:15 | 5.21010 | -54.10314 | 27621 ft | 461 kts | 282° |
| 2026-04-21 22:15 | 5.21710 | -54.13416 | 27815 ft | 462 kts | 282° |
| 2026-04-21 22:15 | 5.22433 | -54.16607 | 28012 ft | 464 kts | 282° |
| 2026-04-21 22:16 | 5.23141 | -54.19732 | 28194 ft | 466 kts | 282° |
| 2026-04-21 22:16 | 5.23861 | -54.22907 | 28385 ft | 467 kts | 282° |
| 2026-04-21 22:16 | 5.24581 | -54.26087 | 28575 ft | 469 kts | 282° |
| 2026-04-21 22:16 | 5.25305 | -54.29276 | 28780 ft | 470 kts | 282° |
| 2026-04-21 22:17 | 5.26027 | -54.32480 | 28978 ft | 471 kts | 281° |
| 2026-04-21 22:17 | 5.26743 | -54.35698 | 29185 ft | 472 kts | 281° |
| 2026-04-21 22:17 | 5.27453 | -54.38912 | 29380 ft | 474 kts | 281° |
| 2026-04-21 22:17 | 5.28167 | -54.42154 | 29564 ft | 476 kts | 281° |
| 2026-04-21 22:18 | 5.28883 | -54.45402 | 29752 ft | 477 kts | 281° |
| 2026-04-21 22:18 | 5.29604 | -54.48650 | 29985 ft | 477 kts | 281° |
| 2026-04-21 22:18 | 5.30317 | -54.51850 | 30215 ft | 477 kts | 281° |
| 2026-04-21 22:18 | 5.31042 | -54.55096 | 30458 ft | 476 kts | 281° |
| 2026-04-21 22:19 | 5.31761 | -54.58331 | 30684 ft | 476 kts | 281° |
| 2026-04-21 22:19 | 5.32479 | -54.61573 | 30901 ft | 476 kts | 281° |
| 2026-04-21 22:19 | 5.33195 | -54.64816 | 31122 ft | 476 kts | 281° |
| 2026-04-21 22:19 | 5.33912 | -54.68056 | 31327 ft | 476 kts | 281° |
| 2026-04-21 22:20 | 5.34631 | -54.71295 | 31557 ft | 476 kts | 281° |
| 2026-04-21 22:20 | 5.35350 | -54.74532 | 31782 ft | 476 kts | 281° |
| 2026-04-21 22:20 | 5.36071 | -54.77780 | 32007 ft | 476 kts | 281° |
| 2026-04-21 22:20 | 5.36779 | -54.80978 | 32230 ft | 476 kts | 281° |
| 2026-04-21 22:21 | 5.37503 | -54.84259 | 32463 ft | 476 kts | 281° |
| 2026-04-21 22:21 | 5.38212 | -54.87466 | 32683 ft | 476 kts | 281° |
| 2026-04-21 22:21 | 5.38928 | -54.90699 | 32907 ft | 476 kts | 281° |
| 2026-04-21 22:21 | 5.39646 | -54.93942 | 33131 ft | 476 kts | 281° |
| 2026-04-21 22:22 | 5.40362 | -54.97177 | 33356 ft | 476 kts | 280° |
| 2026-04-21 22:22 | 5.41078 | -55.00421 | 33588 ft | 476 kts | 280° |
| 2026-04-21 22:22 | 5.41795 | -55.03664 | 33809 ft | 476 kts | 281° |
| 2026-04-21 22:23 | 5.43227 | -55.10118 | 33911 ft | 471 kts | 281° |
| 2026-04-21 22:23 | 5.44639 | -55.16522 | 33914 ft | 470 kts | 280° |
| 2026-04-21 22:24 | 5.46529 | -55.22757 | 33918 ft | 471 kts | 287° |
| 2026-04-21 22:24 | 5.48663 | -55.28978 | 33918 ft | 471 kts | 287° |
| 2026-04-21 22:25 | 5.50797 | -55.35198 | 33915 ft | 472 kts | 287° |
| 2026-04-21 22:25 | 5.52933 | -55.41422 | 33918 ft | 472 kts | 287° |
| 2026-04-21 22:26 | 5.55064 | -55.47654 | 33922 ft | 472 kts | 287° |
| 2026-04-21 22:26 | 5.57168 | -55.53839 | 33924 ft | 472 kts | 287° |
| 2026-04-21 22:27 | 5.59292 | -55.60071 | 33914 ft | 472 kts | 287° |
| 2026-04-21 22:27 | 5.61421 | -55.66319 | 33912 ft | 473 kts | 287° |
| 2026-04-21 22:28 | 5.63549 | -55.72560 | 33912 ft | 473 kts | 287° |
| 2026-04-21 22:28 | 5.65685 | -55.78804 | 33916 ft | 473 kts | 287° |
| 2026-04-21 22:29 | 5.67826 | -55.85064 | 33925 ft | 474 kts | 287° |
| 2026-04-21 22:29 | 5.69954 | -55.91325 | 33929 ft | 474 kts | 287° |
| 2026-04-21 22:30 | 5.72075 | -55.97536 | 33925 ft | 473 kts | 287° |
| 2026-04-21 22:30 | 5.74200 | -56.03782 | 33922 ft | 473 kts | 287° |
| 2026-04-21 22:31 | 5.76328 | -56.10037 | 33924 ft | 473 kts | 287° |
| 2026-04-21 22:31 | 5.78454 | -56.16289 | 33927 ft | 473 kts | 287° |
| 2026-04-21 22:32 | 5.80580 | -56.22557 | 33928 ft | 474 kts | 287° |
| 2026-04-21 22:32 | 5.82695 | -56.28770 | 33929 ft | 473 kts | 287° |
| 2026-04-21 22:33 | 5.84826 | -56.35022 | 33919 ft | 473 kts | 287° |
| 2026-04-21 22:33 | 5.86955 | -56.41282 | 33917 ft | 474 kts | 287° |
| 2026-04-21 22:34 | 5.89085 | -56.47556 | 33920 ft | 474 kts | 287° |
| 2026-04-21 22:34 | 5.91210 | -56.53817 | 33920 ft | 474 kts | 287° |
| 2026-04-21 22:35 | 5.93338 | -56.60087 | 33917 ft | 474 kts | 287° |
| 2026-04-21 22:35 | 5.95465 | -56.66368 | 33916 ft | 474 kts | 287° |
| 2026-04-21 22:36 | 5.98652 | -56.75777 | 33919 ft | 475 kts | 287° |
| 2026-04-21 22:36 | 6.00765 | -56.82008 | 33920 ft | 475 kts | 287° |
| 2026-04-21 22:37 | 6.02897 | -56.88289 | 33923 ft | 474 kts | 287° |
| 2026-04-21 22:37 | 6.05021 | -56.94560 | 33922 ft | 474 kts | 287° |
| 2026-04-21 22:38 | 6.07144 | -57.00843 | 33922 ft | 479 kts | 287° |
| 2026-04-21 22:38 | 6.09318 | -57.07247 | 33920 ft | 489 kts | 287° |
| 2026-04-21 22:39 | 6.11542 | -57.13764 | 33915 ft | 497 kts | 287° |
| 2026-04-21 22:39 | 6.13785 | -57.20339 | 33916 ft | 498 kts | 287° |
| 2026-04-21 22:40 | 6.16017 | -57.26893 | 33915 ft | 499 kts | 287° |
| 2026-04-21 22:40 | 6.18258 | -57.33485 | 33914 ft | 499 kts | 287° |
| 2026-04-21 22:41 | 6.20499 | -57.40084 | 33911 ft | 499 kts | 287° |
| 2026-04-21 22:41 | 6.22743 | -57.46666 | 33922 ft | 498 kts | 287° |
| 2026-04-21 22:42 | 6.24989 | -57.53254 | 33924 ft | 498 kts | 287° |
| 2026-04-21 22:42 | 6.27208 | -57.59780 | 33921 ft | 497 kts | 287° |
| 2026-04-21 22:43 | 6.29437 | -57.66366 | 33921 ft | 497 kts | 287° |
| 2026-04-21 22:43 | 6.31663 | -57.72933 | 33918 ft | 496 kts | 287° |
| 2026-04-21 22:44 | 6.33894 | -57.79492 | 33921 ft | 496 kts | 287° |
| 2026-04-21 22:44 | 6.36124 | -57.86053 | 33916 ft | 496 kts | 287° |
| 2026-04-21 22:45 | 6.38330 | -57.92568 | 33922 ft | 495 kts | 287° |
| 2026-04-21 22:45 | 6.40554 | -57.99121 | 33918 ft | 495 kts | 287° |
| 2026-04-21 22:46 | 6.42769 | -58.05673 | 33909 ft | 495 kts | 287° |
| 2026-04-21 22:46 | 6.44985 | -58.12230 | 33909 ft | 495 kts | 287° |
| 2026-04-21 22:47 | 6.47201 | -58.18786 | 33902 ft | 495 kts | 287° |
| 2026-04-21 22:47 | 6.49516 | -58.25309 | 33893 ft | 497 kts | 293° |
| 2026-04-21 22:48 | 6.53111 | -58.31212 | 33894 ft | 500 kts | 302° |
| 2026-04-21 22:48 | 6.56978 | -58.37028 | 33894 ft | 500 kts | 302° |
| 2026-04-21 22:49 | 6.60841 | -58.42848 | 33895 ft | 500 kts | 302° |
| 2026-04-21 22:49 | 6.64701 | -58.48663 | 33899 ft | 500 kts | 302° |
| 2026-04-21 22:50 | 6.67910 | -58.53506 | 33900 ft | 501 kts | 302° |
| 2026-04-21 22:50 | 6.71770 | -58.59338 | 33906 ft | 501 kts | 302° |
| 2026-04-21 22:51 | 6.76264 | -58.66123 | 33906 ft | 501 kts | 302° |
| 2026-04-21 22:51 | 6.80134 | -58.71950 | 33913 ft | 501 kts | 302° |
| 2026-04-21 22:52 | 6.83374 | -58.76840 | 33913 ft | 501 kts | 302° |
| 2026-04-21 22:52 | 6.87213 | -58.82646 | 33913 ft | 501 kts | 302° |
| 2026-04-21 22:53 | 6.91072 | -58.88486 | 33920 ft | 501 kts | 302° |
| 2026-04-21 22:53 | 6.94932 | -58.94326 | 33918 ft | 501 kts | 302° |
| 2026-04-21 22:54 | 6.98798 | -59.00168 | 33916 ft | 501 kts | 302° |
| 2026-04-21 22:54 | 7.02661 | -59.06002 | 33926 ft | 501 kts | 302° |
| 2026-04-21 22:55 | 7.06511 | -59.11836 | 33927 ft | 500 kts | 302° |
| 2026-04-21 22:55 | 7.10336 | -59.17627 | 33927 ft | 499 kts | 302° |
| 2026-04-21 22:56 | 7.14219 | -59.23419 | 33917 ft | 499 kts | 304° |
| 2026-04-21 22:56 | 7.18425 | -59.28980 | 33916 ft | 500 kts | 307° |
| 2026-04-21 22:57 | 7.22658 | -59.34539 | 33912 ft | 500 kts | 304° |
| 2026-04-21 22:57 | 7.26562 | -59.40326 | 33916 ft | 499 kts | 302° |
| 2026-04-21 22:58 | 7.30346 | -59.46188 | 33916 ft | 499 kts | 302° |
| 2026-04-21 22:58 | 7.34185 | -59.52008 | 33914 ft | 499 kts | 303° |
| 2026-04-21 22:59 | 7.38059 | -59.57758 | 33913 ft | 499 kts | 303° |
| 2026-04-21 22:59 | 7.41962 | -59.63541 | 33917 ft | 499 kts | 303° |
| 2026-04-21 23:00 | 7.45848 | -59.69335 | 33927 ft | 499 kts | 303° |
| 2026-04-21 23:00 | 7.49731 | -59.75134 | 33930 ft | 499 kts | 303° |
| 2026-04-21 23:01 | 7.53611 | -59.80934 | 33930 ft | 499 kts | 303° |
| 2026-04-21 23:01 | 7.57482 | -59.86733 | 33920 ft | 499 kts | 302° |
| 2026-04-21 23:02 | 7.61361 | -59.92532 | 33928 ft | 499 kts | 302° |
| 2026-04-21 23:02 | 7.65214 | -59.98296 | 33929 ft | 499 kts | 302° |
| 2026-04-21 23:03 | 7.69093 | -60.04102 | 33933 ft | 500 kts | 302° |
| 2026-04-21 23:03 | 7.72985 | -60.09913 | 33931 ft | 500 kts | 302° |
| 2026-04-21 23:04 | 7.76868 | -60.15722 | 33927 ft | 500 kts | 302° |
| 2026-04-21 23:04 | 7.80749 | -60.21537 | 33934 ft | 500 kts | 302° |
| 2026-04-21 23:05 | 7.84636 | -60.27355 | 33923 ft | 500 kts | 302° |
| 2026-04-21 23:05 | 7.88496 | -60.33140 | 33919 ft | 500 kts | 302° |
| 2026-04-21 23:06 | 7.92364 | -60.38962 | 33921 ft | 500 kts | 302° |
| 2026-04-21 23:06 | 7.96223 | -60.44804 | 33934 ft | 500 kts | 302° |
| 2026-04-21 23:07 | 8.00078 | -60.50630 | 33923 ft | 499 kts | 302° |
| 2026-04-21 23:07 | 8.03946 | -60.56449 | 33922 ft | 499 kts | 302° |
| 2026-04-21 23:08 | 8.07804 | -60.62270 | 33919 ft | 499 kts | 302° |
| 2026-04-21 23:08 | 8.11626 | -60.68055 | 33916 ft | 499 kts | 302° |
| 2026-04-21 23:09 | 8.15475 | -60.73878 | 33920 ft | 498 kts | 302° |
| 2026-04-21 23:09 | 8.19325 | -60.79696 | 33916 ft | 498 kts | 302° |
| 2026-04-21 23:10 | 8.23169 | -60.85517 | 33917 ft | 498 kts | 302° |
| 2026-04-21 23:10 | 8.27012 | -60.91335 | 33916 ft | 498 kts | 302° |
| 2026-04-21 23:11 | 8.30862 | -60.97158 | 33922 ft | 498 kts | 302° |
| 2026-04-21 23:11 | 8.34680 | -61.02929 | 33935 ft | 498 kts | 302° |
| 2026-04-21 23:12 | 8.38519 | -61.08742 | 33942 ft | 497 kts | 302° |
| 2026-04-21 23:12 | 8.42349 | -61.14547 | 33946 ft | 496 kts | 302° |
| 2026-04-21 23:13 | 8.46177 | -61.20344 | 33945 ft | 496 kts | 302° |
| 2026-04-21 23:13 | 8.49993 | -61.26129 | 33941 ft | 495 kts | 302° |
| 2026-04-21 23:14 | 8.53802 | -61.31887 | 33943 ft | 495 kts | 302° |
| 2026-04-21 23:14 | 8.57629 | -61.37665 | 33942 ft | 495 kts | 302° |
| 2026-04-21 23:15 | 8.61457 | -61.43443 | 33944 ft | 494 kts | 302° |
| 2026-04-21 23:15 | 8.65269 | -61.49211 | 33943 ft | 493 kts | 302° |
| 2026-04-21 23:16 | 8.69076 | -61.54976 | 33941 ft | 492 kts | 302° |
| 2026-04-21 23:16 | 8.72877 | -61.60727 | 33938 ft | 491 kts | 302° |
| 2026-04-21 23:17 | 8.76665 | -61.66471 | 33939 ft | 491 kts | 302° |
| 2026-04-21 23:17 | 8.80427 | -61.72174 | 33933 ft | 491 kts | 302° |
| 2026-04-21 23:18 | 8.84213 | -61.77913 | 33935 ft | 491 kts | 302° |
| 2026-04-21 23:18 | 8.87997 | -61.83650 | 33929 ft | 490 kts | 302° |
| 2026-04-21 23:19 | 8.91779 | -61.89387 | 33921 ft | 490 kts | 302° |
| 2026-04-21 23:19 | 8.95555 | -61.95126 | 33929 ft | 489 kts | 302° |
| 2026-04-21 23:20 | 8.99298 | -62.00813 | 33929 ft | 488 kts | 302° |
| 2026-04-21 23:20 | 9.03061 | -62.06526 | 33936 ft | 488 kts | 302° |
| 2026-04-21 23:21 | 9.06818 | -62.12228 | 33936 ft | 487 kts | 301° |
| 2026-04-21 23:21 | 9.10569 | -62.17932 | 33937 ft | 486 kts | 301° |
| 2026-04-21 23:22 | 9.14304 | -62.23622 | 33938 ft | 485 kts | 301° |
| 2026-04-21 23:22 | 9.18040 | -62.29306 | 33935 ft | 484 kts | 301° |
| 2026-04-21 23:23 | 9.21765 | -62.34973 | 33935 ft | 483 kts | 301° |
| 2026-04-21 23:23 | 9.25491 | -62.40640 | 33930 ft | 483 kts | 301° |
| 2026-04-21 23:24 | 9.29183 | -62.46263 | 33924 ft | 483 kts | 301° |
| 2026-04-21 23:24 | 9.32899 | -62.51926 | 33933 ft | 483 kts | 301° |
| 2026-04-21 23:25 | 9.36613 | -62.57589 | 33929 ft | 483 kts | 301° |
| 2026-04-21 23:25 | 9.40316 | -62.63256 | 33936 ft | 483 kts | 301° |
| 2026-04-21 23:26 | 9.44021 | -62.68918 | 33940 ft | 482 kts | 301° |
| 2026-04-21 23:26 | 9.47724 | -62.74572 | 33937 ft | 481 kts | 301° |
| 2026-04-21 23:27 | 9.51402 | -62.80184 | 33936 ft | 481 kts | 301° |
| 2026-04-21 23:27 | 9.55091 | -62.85828 | 33923 ft | 480 kts | 301° |
| 2026-04-21 23:28 | 9.58779 | -62.91475 | 33941 ft | 480 kts | 301° |
| 2026-04-21 23:28 | 9.62457 | -62.97112 | 33925 ft | 480 kts | 301° |
| 2026-04-21 23:29 | 9.66141 | -63.02754 | 33941 ft | 480 kts | 301° |
| 2026-04-21 23:29 | 9.69825 | -63.08385 | 33932 ft | 480 kts | 301° |
| 2026-04-21 23:30 | 9.73432 | -63.14067 | 33937 ft | 478 kts | 295° |
| 2026-04-21 23:30 | 9.75568 | -63.20375 | 33954 ft | 472 kts | 281° |
| 2026-04-21 23:31 | 9.77117 | -63.26795 | 33948 ft | 472 kts | 282° |
| 2026-04-21 23:31 | 9.78695 | -63.33265 | 33942 ft | 472 kts | 282° |
| 2026-04-21 23:32 | 9.80262 | -63.39727 | 33945 ft | 472 kts | 281° |
| 2026-04-21 23:32 | 9.81822 | -63.46198 | 33946 ft | 473 kts | 281° |
| 2026-04-21 23:33 | 9.83122 | -63.51580 | 33955 ft | 473 kts | 281° |
| 2026-04-21 23:33 | 9.84847 | -63.58711 | 33953 ft | 473 kts | 281° |
| 2026-04-21 23:34 | 9.86414 | -63.65204 | 33961 ft | 474 kts | 281° |
| 2026-04-21 23:34 | 9.87962 | -63.71656 | 33972 ft | 474 kts | 281° |
| 2026-04-21 23:35 | 9.89524 | -63.78154 | 33974 ft | 474 kts | 281° |
| 2026-04-21 23:35 | 9.91092 | -63.84657 | 33974 ft | 475 kts | 281° |
| 2026-04-21 23:36 | 9.92662 | -63.91159 | 33998 ft | 475 kts | 281° |
| 2026-04-21 23:36 | 9.94223 | -63.97662 | 33998 ft | 475 kts | 281° |
| 2026-04-21 23:37 | 9.95765 | -64.04124 | 33993 ft | 475 kts | 281° |
| 2026-04-21 23:37 | 9.97323 | -64.10625 | 33994 ft | 475 kts | 281° |
| 2026-04-21 23:38 | 9.98884 | -64.17133 | 33985 ft | 474 kts | 281° |
| 2026-04-21 23:38 | 10.00436 | -64.23632 | 33962 ft | 474 kts | 281° |
| 2026-04-21 23:39 | 10.01985 | -64.30134 | 33966 ft | 474 kts | 281° |
| 2026-04-21 23:39 | 10.03535 | -64.36632 | 33947 ft | 474 kts | 281° |
| 2026-04-21 23:40 | 10.05067 | -64.43088 | 33947 ft | 474 kts | 281° |
| 2026-04-21 23:40 | 10.06621 | -64.49585 | 33941 ft | 474 kts | 281° |
| 2026-04-21 23:41 | 10.08182 | -64.56075 | 33938 ft | 474 kts | 281° |
| 2026-04-21 23:41 | 10.09721 | -64.62574 | 33939 ft | 474 kts | 281° |
| 2026-04-21 23:42 | 10.11282 | -64.69071 | 33926 ft | 475 kts | 284° |
| 2026-04-21 23:42 | 10.13424 | -64.75419 | 33923 ft | 476 kts | 287° |
| 2026-04-21 23:43 | 10.15582 | -64.81719 | 33925 ft | 476 kts | 287° |
| 2026-04-21 23:43 | 10.17746 | -64.88070 | 33933 ft | 476 kts | 287° |
| 2026-04-21 23:44 | 10.19911 | -64.94427 | 33941 ft | 476 kts | 287° |
| 2026-04-21 23:44 | 10.22077 | -65.00782 | 33958 ft | 477 kts | 287° |
| 2026-04-21 23:45 | 10.25316 | -65.10328 | 33962 ft | 477 kts | 287° |
| 2026-04-21 23:46 | 10.27466 | -65.16643 | 33968 ft | 477 kts | 287° |
| 2026-04-21 23:46 | 10.29629 | -65.23001 | 33970 ft | 476 kts | 287° |
| 2026-04-21 23:47 | 10.31790 | -65.29358 | 33971 ft | 476 kts | 287° |
| 2026-04-21 23:47 | 10.33946 | -65.35705 | 33978 ft | 475 kts | 287° |
| 2026-04-21 23:48 | 10.36089 | -65.42036 | 33984 ft | 473 kts | 287° |
| 2026-04-21 23:48 | 10.38232 | -65.48357 | 33980 ft | 473 kts | 287° |
| 2026-04-21 23:49 | 10.40371 | -65.54668 | 33969 ft | 472 kts | 287° |
| 2026-04-21 23:49 | 10.42504 | -65.60980 | 33970 ft | 472 kts | 287° |
| 2026-04-21 23:50 | 10.44638 | -65.67286 | 33978 ft | 472 kts | 287° |
| 2026-04-21 23:50 | 10.46757 | -65.73555 | 33977 ft | 472 kts | 287° |
| 2026-04-21 23:51 | 10.48884 | -65.79863 | 33978 ft | 472 kts | 287° |
| 2026-04-21 23:51 | 10.51010 | -65.86173 | 33976 ft | 472 kts | 287° |
| 2026-04-21 23:52 | 10.53135 | -65.92492 | 33977 ft | 472 kts | 287° |
| 2026-04-21 23:52 | 10.55262 | -65.98806 | 33978 ft | 473 kts | 287° |
| 2026-04-21 23:53 | 10.57187 | -66.05181 | 33976 ft | 470 kts | 278° |
| 2026-04-21 23:53 | 10.57624 | -66.11785 | 33983 ft | 469 kts | 271° |
| 2026-04-21 23:54 | 10.57876 | -66.18368 | 33984 ft | 469 kts | 271° |
| 2026-04-21 23:54 | 10.58140 | -66.25006 | 33990 ft | 470 kts | 271° |
| 2026-04-21 23:55 | 10.58408 | -66.31640 | 33987 ft | 470 kts | 271° |
| 2026-04-21 23:55 | 10.58661 | -66.38288 | 33998 ft | 471 kts | 271° |
| 2026-04-21 23:56 | 10.58911 | -66.44944 | 33988 ft | 472 kts | 271° |
| 2026-04-21 23:56 | 10.59170 | -66.51564 | 34007 ft | 472 kts | 271° |
| 2026-04-21 23:57 | 10.59423 | -66.58222 | 34006 ft | 472 kts | 270° |
| 2026-04-21 23:57 | 10.59675 | -66.64895 | 33998 ft | 472 kts | 270° |
| 2026-04-21 23:58 | 10.59925 | -66.71567 | 33996 ft | 473 kts | 270° |
| 2026-04-21 23:58 | 10.60174 | -66.78239 | 33992 ft | 473 kts | 270° |
| 2026-04-21 23:59 | 10.60423 | -66.84874 | 33983 ft | 473 kts | 270° |
| 2026-04-21 23:59 | 10.60677 | -66.91547 | 33985 ft | 473 kts | 270° |
| 2026-04-22 00:00 | 10.60924 | -66.98235 | 33978 ft | 473 kts | 270° |
| 2026-04-22 00:00 | 10.61213 | -67.04924 | 33982 ft | 474 kts | 271° |
| 2026-04-22 00:01 | 10.61580 | -67.11613 | 33989 ft | 474 kts | 271° |
| 2026-04-22 00:01 | 10.61946 | -67.18300 | 33999 ft | 474 kts | 271° |
| 2026-04-22 00:02 | 10.62286 | -67.24990 | 34001 ft | 474 kts | 271° |
| 2026-04-22 00:02 | 10.62616 | -67.31639 | 34002 ft | 474 kts | 271° |
| 2026-04-22 00:03 | 10.62954 | -67.38331 | 34011 ft | 474 kts | 271° |
| 2026-04-22 00:03 | 10.63293 | -67.45034 | 34004 ft | 474 kts | 271° |
| 2026-04-22 00:04 | 10.63632 | -67.51729 | 33998 ft | 475 kts | 271° |
| 2026-04-22 00:04 | 10.63972 | -67.58430 | 34005 ft | 474 kts | 271° |
| 2026-04-22 00:05 | 10.64306 | -67.65117 | 34005 ft | 474 kts | 271° |
| 2026-04-22 00:05 | 10.64638 | -67.71762 | 34000 ft | 473 kts | 271° |
| 2026-04-22 00:06 | 10.64967 | -67.78445 | 34001 ft | 473 kts | 271° |
| 2026-04-22 00:06 | 10.65288 | -67.85124 | 33998 ft | 473 kts | 271° |
| 2026-04-22 00:07 | 10.65588 | -67.91809 | 33995 ft | 473 kts | 270° |
| 2026-04-22 00:07 | 10.65761 | -67.98492 | 33996 ft | 473 kts | 270° |
| 2026-04-22 00:08 | 10.65887 | -68.05130 | 33994 ft | 473 kts | 270° |
| 2026-04-22 00:08 | 10.66039 | -68.11807 | 33990 ft | 473 kts | 270° |
| 2026-04-22 00:09 | 10.66206 | -68.18489 | 33997 ft | 473 kts | 270° |
| 2026-04-22 00:09 | 10.66370 | -68.25171 | 33997 ft | 472 kts | 270° |
| 2026-04-22 00:10 | 10.66527 | -68.31838 | 34009 ft | 472 kts | 270° |
| 2026-04-22 00:10 | 10.66682 | -68.38512 | 34010 ft | 472 kts | 270° |
| 2026-04-22 00:11 | 10.66842 | -68.45133 | 34002 ft | 472 kts | 270° |
| 2026-04-22 00:11 | 10.66992 | -68.51795 | 34005 ft | 472 kts | 270° |
| 2026-04-22 00:12 | 10.67150 | -68.58460 | 34004 ft | 472 kts | 270° |
| 2026-04-22 00:12 | 10.67306 | -68.65132 | 34002 ft | 472 kts | 270° |
| 2026-04-22 00:13 | 10.67454 | -68.71803 | 33992 ft | 472 kts | 270° |
| 2026-04-22 00:13 | 10.67597 | -68.78480 | 33995 ft | 472 kts | 269° |
| 2026-04-22 00:14 | 10.67696 | -68.85155 | 33996 ft | 472 kts | 269° |
| 2026-04-22 00:14 | 10.67770 | -68.91782 | 34004 ft | 472 kts | 269° |
| 2026-04-22 00:15 | 10.67849 | -68.98458 | 34001 ft | 472 kts | 269° |
| 2026-04-22 00:15 | 10.67937 | -69.05126 | 34001 ft | 472 kts | 269° |
| 2026-04-22 00:16 | 10.68027 | -69.11803 | 33997 ft | 472 kts | 269° |
| 2026-04-22 00:16 | 10.68110 | -69.18476 | 34001 ft | 472 kts | 269° |
| 2026-04-22 00:17 | 10.68194 | -69.25152 | 34007 ft | 472 kts | 269° |
| 2026-04-22 00:17 | 10.68275 | -69.31781 | 34005 ft | 472 kts | 269° |
| 2026-04-22 00:18 | 10.68354 | -69.38451 | 34005 ft | 472 kts | 269° |
| 2026-04-22 00:18 | 10.68431 | -69.45123 | 34004 ft | 472 kts | 269° |
| 2026-04-22 00:19 | 10.68500 | -69.51799 | 33999 ft | 472 kts | 269° |
| 2026-04-22 00:19 | 10.68576 | -69.58466 | 33998 ft | 472 kts | 269° |
| 2026-04-22 00:20 | 10.68656 | -69.65141 | 33999 ft | 472 kts | 269° |
| 2026-04-22 00:20 | 10.68731 | -69.71813 | 33997 ft | 472 kts | 269° |
| 2026-04-22 00:21 | 10.68805 | -69.78488 | 33995 ft | 472 kts | 269° |
| 2026-04-22 00:21 | 10.68946 | -69.85116 | 33992 ft | 472 kts | 270° |
| 2026-04-22 00:22 | 10.69123 | -69.91790 | 33995 ft | 472 kts | 270° |
| 2026-04-22 00:22 | 10.69298 | -69.98472 | 33994 ft | 473 kts | 270° |
| 2026-04-22 00:23 | 10.69452 | -70.05147 | 33996 ft | 473 kts | 269° |
| 2026-04-22 00:23 | 10.69598 | -70.11831 | 33996 ft | 473 kts | 269° |
| 2026-04-22 00:24 | 10.69738 | -70.18470 | 33996 ft | 473 kts | 269° |
| 2026-04-22 00:24 | 10.69881 | -70.25151 | 33995 ft | 473 kts | 269° |
| 2026-04-22 00:25 | 10.70027 | -70.31843 | 33994 ft | 474 kts | 269° |
| 2026-04-22 00:25 | 10.70173 | -70.38542 | 33995 ft | 474 kts | 269° |
| 2026-04-22 00:26 | 10.70296 | -70.45239 | 33996 ft | 474 kts | 269° |
| 2026-04-22 00:26 | 10.70409 | -70.51946 | 33986 ft | 474 kts | 269° |
| 2026-04-22 00:27 | 10.70527 | -70.58603 | 33994 ft | 474 kts | 270° |
| 2026-04-22 00:27 | 10.70647 | -70.65303 | 33985 ft | 474 kts | 269° |
| 2026-04-22 00:28 | 10.70758 | -70.72006 | 33985 ft | 474 kts | 269° |
| 2026-04-22 00:28 | 10.70864 | -70.78712 | 33976 ft | 474 kts | 269° |
| 2026-04-22 00:29 | 10.70983 | -70.85418 | 33975 ft | 474 kts | 269° |
| 2026-04-22 00:29 | 10.71102 | -70.92078 | 33971 ft | 474 kts | 270° |
| 2026-04-22 00:30 | 10.71246 | -70.98778 | 33974 ft | 474 kts | 270° |
| 2026-04-22 00:30 | 10.71409 | -71.05468 | 33966 ft | 473 kts | 270° |
| 2026-04-22 00:31 | 10.71565 | -71.12165 | 33973 ft | 473 kts | 270° |
| 2026-04-22 00:31 | 10.71710 | -71.18849 | 33963 ft | 474 kts | 270° |
| 2026-04-22 00:32 | 10.71860 | -71.25554 | 33956 ft | 474 kts | 270° |
| 2026-04-22 00:32 | 10.72008 | -71.32212 | 33951 ft | 475 kts | 270° |
| 2026-04-22 00:33 | 10.72153 | -71.38926 | 33948 ft | 475 kts | 270° |
| 2026-04-22 00:33 | 10.72292 | -71.45654 | 33943 ft | 476 kts | 270° |
| 2026-04-22 00:34 | 10.72416 | -71.52390 | 33946 ft | 477 kts | 269° |
| 2026-04-22 00:34 | 10.72528 | -71.59128 | 33956 ft | 477 kts | 269° |
| 2026-04-22 00:35 | 10.72641 | -71.65863 | 33967 ft | 476 kts | 269° |
| 2026-04-22 00:35 | 10.72761 | -71.72544 | 33971 ft | 476 kts | 270° |
| 2026-04-22 00:36 | 10.72888 | -71.79268 | 33974 ft | 475 kts | 270° |
| 2026-04-22 00:36 | 10.73003 | -71.85985 | 33975 ft | 475 kts | 269° |
| 2026-04-22 00:37 | 10.73118 | -71.92712 | 33979 ft | 475 kts | 270° |
| 2026-04-22 00:37 | 10.73226 | -71.99427 | 33984 ft | 475 kts | 270° |
| 2026-04-22 00:38 | 10.73335 | -72.06138 | 33978 ft | 475 kts | 270° |
| 2026-04-22 00:38 | 10.73448 | -72.12857 | 33986 ft | 475 kts | 270° |
| 2026-04-22 00:39 | 10.73549 | -72.19522 | 33990 ft | 475 kts | 270° |
| 2026-04-22 00:39 | 10.73644 | -72.26234 | 34000 ft | 475 kts | 270° |
| 2026-04-22 00:40 | 10.73746 | -72.32955 | 33997 ft | 475 kts | 270° |
| 2026-04-22 00:40 | 10.73852 | -72.39677 | 34020 ft | 476 kts | 270° |
| 2026-04-22 00:41 | 10.73955 | -72.46402 | 34014 ft | 476 kts | 270° |
| 2026-04-22 00:41 | 10.74050 | -72.53131 | 34017 ft | 476 kts | 270° |
| 2026-04-22 00:42 | 10.74146 | -72.59813 | 34030 ft | 476 kts | 270° |
| 2026-04-22 00:42 | 10.74245 | -72.66547 | 34031 ft | 476 kts | 270° |
| 2026-04-22 00:43 | 10.74805 | -72.73257 | 34039 ft | 477 kts | 277° |
| 2026-04-22 00:43 | 10.75771 | -72.79933 | 34037 ft | 477 kts | 277° |
| 2026-04-22 00:44 | 10.76735 | -72.86615 | 34022 ft | 478 kts | 277° |
| 2026-04-22 00:44 | 10.77695 | -72.93299 | 34026 ft | 478 kts | 277° |
| 2026-04-22 00:45 | 10.78657 | -72.99982 | 34032 ft | 478 kts | 277° |
| 2026-04-22 00:45 | 10.79623 | -73.06665 | 34034 ft | 477 kts | 277° |
| 2026-04-22 00:46 | 10.80573 | -73.13293 | 34044 ft | 476 kts | 277° |
| 2026-04-22 00:46 | 10.81531 | -73.19953 | 34042 ft | 476 kts | 277° |
| 2026-04-22 00:47 | 10.82480 | -73.26607 | 34058 ft | 475 kts | 277° |
| 2026-04-22 00:47 | 10.83428 | -73.33252 | 34064 ft | 474 kts | 277° |
| 2026-04-22 00:48 | 10.84216 | -73.38774 | 34099 ft | 474 kts | 277° |
| 2026-04-22 00:48 | 10.85158 | -73.45402 | 34108 ft | 474 kts | 277° |
| 2026-04-22 00:49 | 10.86254 | -73.53109 | 34129 ft | 473 kts | 277° |
| 2026-04-22 00:49 | 10.87041 | -73.58649 | 34129 ft | 472 kts | 277° |
| 2026-04-22 00:50 | 10.87971 | -73.65220 | 34120 ft | 472 kts | 277° |
| 2026-04-22 00:50 | 10.88912 | -73.71828 | 34121 ft | 472 kts | 276° |
| 2026-04-22 00:51 | 10.89855 | -73.78431 | 34115 ft | 471 kts | 276° |
| 2026-04-22 00:51 | 10.90786 | -73.85030 | 34078 ft | 471 kts | 276° |
| 2026-04-22 00:52 | 10.91701 | -73.91636 | 34081 ft | 472 kts | 276° |
| 2026-04-22 00:52 | 10.92624 | -73.98236 | 34037 ft | 472 kts | 276° |
| 2026-04-22 00:53 | 10.93550 | -74.04798 | 34032 ft | 472 kts | 276° |
| 2026-04-22 00:53 | 10.94484 | -74.11407 | 33956 ft | 472 kts | 276° |
| 2026-04-22 00:54 | 10.95413 | -74.18017 | 33951 ft | 472 kts | 276° |
| 2026-04-22 00:54 | 10.96338 | -74.24638 | 33939 ft | 472 kts | 276° |
| 2026-04-22 00:55 | 10.97366 | -74.31242 | 33943 ft | 472 kts | 278° |
| 2026-04-22 00:55 | 10.99051 | -74.41123 | 33940 ft | 473 kts | 278° |
| 2026-04-22 00:56 | 11.00145 | -74.47680 | 33945 ft | 473 kts | 277° |
| 2026-04-22 00:56 | 11.01226 | -74.54292 | 33948 ft | 473 kts | 277° |
| 2026-04-22 00:57 | 11.02302 | -74.60903 | 33947 ft | 473 kts | 277° |
| 2026-04-22 00:57 | 11.03379 | -74.67517 | 33943 ft | 474 kts | 277° |
| 2026-04-22 00:58 | 11.04470 | -74.74124 | 33937 ft | 474 kts | 277° |
| 2026-04-22 00:58 | 11.05551 | -74.80738 | 33943 ft | 473 kts | 277° |
| 2026-04-22 00:59 | 11.06619 | -74.87297 | 33944 ft | 473 kts | 277° |
| 2026-04-22 00:59 | 11.07692 | -74.93912 | 33952 ft | 473 kts | 277° |
| 2026-04-22 01:00 | 11.08766 | -75.00519 | 33967 ft | 473 kts | 277° |
| 2026-04-22 01:00 | 11.09833 | -75.07138 | 33970 ft | 474 kts | 277° |
| 2026-04-22 01:01 | 11.10899 | -75.13755 | 33970 ft | 474 kts | 277° |
| 2026-04-22 01:01 | 11.11971 | -75.20386 | 33969 ft | 475 kts | 277° |
| 2026-04-22 01:02 | 11.13042 | -75.26982 | 33975 ft | 475 kts | 277° |
| 2026-04-22 01:02 | 11.14116 | -75.33620 | 33972 ft | 475 kts | 277° |
| 2026-04-22 01:03 | 11.15183 | -75.40268 | 33977 ft | 475 kts | 277° |
| 2026-04-22 01:03 | 11.16247 | -75.46907 | 33976 ft | 475 kts | 277° |
| 2026-04-22 01:04 | 11.17310 | -75.53550 | 33973 ft | 475 kts | 277° |
| 2026-04-22 01:04 | 11.18371 | -75.60183 | 33977 ft | 474 kts | 277° |
| 2026-04-22 01:05 | 11.19427 | -75.66768 | 33973 ft | 474 kts | 277° |
| 2026-04-22 01:05 | 11.20481 | -75.73392 | 33973 ft | 474 kts | 277° |
| 2026-04-22 01:06 | 11.21538 | -75.80021 | 33970 ft | 474 kts | 277° |
| 2026-04-22 01:06 | 11.22596 | -75.86649 | 33959 ft | 475 kts | 277° |
| 2026-04-22 01:07 | 11.23659 | -75.93293 | 33953 ft | 475 kts | 277° |
| 2026-04-22 01:07 | 11.24710 | -75.99933 | 33950 ft | 475 kts | 277° |
| 2026-04-22 01:08 | 11.25759 | -76.06582 | 33958 ft | 475 kts | 277° |
| 2026-04-22 01:08 | 11.26809 | -76.13178 | 33958 ft | 475 kts | 277° |
| 2026-04-22 01:09 | 11.27869 | -76.19825 | 33951 ft | 475 kts | 277° |
| 2026-04-22 01:09 | 11.28913 | -76.26470 | 33955 ft | 475 kts | 276° |
| 2026-04-22 01:10 | 11.29950 | -76.33113 | 33961 ft | 475 kts | 276° |
| 2026-04-22 01:10 | 11.30994 | -76.39763 | 33962 ft | 475 kts | 276° |
| 2026-04-22 01:11 | 11.32044 | -76.46369 | 33958 ft | 476 kts | 277° |
| 2026-04-22 01:11 | 11.33098 | -76.53025 | 33961 ft | 476 kts | 276° |
| 2026-04-22 01:12 | 11.34131 | -76.59691 | 33960 ft | 476 kts | 276° |
| 2026-04-22 01:12 | 11.35170 | -76.66359 | 33962 ft | 477 kts | 276° |
| 2026-04-22 01:13 | 11.36219 | -76.73035 | 33963 ft | 477 kts | 276° |
| 2026-04-22 01:13 | 11.37250 | -76.79669 | 33967 ft | 477 kts | 276° |
| 2026-04-22 01:14 | 11.38288 | -76.86352 | 33978 ft | 477 kts | 276° |
| 2026-04-22 01:14 | 11.39329 | -76.93036 | 33976 ft | 478 kts | 276° |
| 2026-04-22 01:15 | 11.40367 | -76.99726 | 33976 ft | 478 kts | 276° |
| 2026-04-22 01:15 | 11.41407 | -77.06414 | 33975 ft | 478 kts | 276° |
| 2026-04-22 01:16 | 11.42437 | -77.13109 | 33973 ft | 478 kts | 276° |
| 2026-04-22 01:16 | 11.43463 | -77.19758 | 33977 ft | 478 kts | 276° |
| 2026-04-22 01:17 | 11.44508 | -77.26449 | 33971 ft | 479 kts | 276° |
| 2026-04-22 01:17 | 11.45546 | -77.33158 | 33969 ft | 479 kts | 276° |
| 2026-04-22 01:18 | 11.46571 | -77.39876 | 33973 ft | 480 kts | 276° |
| 2026-04-22 01:18 | 11.48104 | -77.46518 | 33980 ft | 483 kts | 282° |
| 2026-04-22 01:19 | 11.49829 | -77.53085 | 33983 ft | 483 kts | 282° |
| 2026-04-22 01:19 | 11.51561 | -77.59697 | 33989 ft | 483 kts | 282° |
| 2026-04-22 01:20 | 11.53286 | -77.66322 | 33986 ft | 484 kts | 282° |
| 2026-04-22 01:20 | 11.55020 | -77.72952 | 33986 ft | 484 kts | 282° |
| 2026-04-22 01:21 | 11.56756 | -77.79594 | 33994 ft | 484 kts | 282° |
| 2026-04-22 01:21 | 11.58472 | -77.86183 | 33990 ft | 484 kts | 282° |
| 2026-04-22 01:22 | 11.60193 | -77.92824 | 33990 ft | 484 kts | 282° |
| 2026-04-22 01:22 | 11.61913 | -77.99463 | 33991 ft | 485 kts | 282° |
| 2026-04-22 01:23 | 11.63642 | -78.06111 | 33983 ft | 484 kts | 282° |
| 2026-04-22 01:23 | 11.65370 | -78.12749 | 33982 ft | 485 kts | 282° |
| 2026-04-22 01:24 | 11.67094 | -78.19398 | 33991 ft | 485 kts | 282° |
| 2026-04-22 01:24 | 11.68800 | -78.26006 | 33990 ft | 485 kts | 282° |
| 2026-04-22 01:25 | 11.70514 | -78.32659 | 33989 ft | 485 kts | 282° |
| 2026-04-22 01:25 | 11.72230 | -78.39317 | 33993 ft | 485 kts | 282° |
| 2026-04-22 01:26 | 11.73942 | -78.45978 | 33995 ft | 485 kts | 282° |
| 2026-04-22 01:26 | 11.75655 | -78.52638 | 33996 ft | 485 kts | 282° |
| 2026-04-22 01:27 | 11.77370 | -78.59300 | 34000 ft | 485 kts | 282° |
| 2026-04-22 01:27 | 11.79080 | -78.65918 | 33994 ft | 485 kts | 282° |
| 2026-04-22 01:28 | 11.80801 | -78.72576 | 33992 ft | 485 kts | 283° |
| 2026-04-22 01:28 | 11.82563 | -78.79221 | 33993 ft | 485 kts | 283° |
| 2026-04-22 01:29 | 11.84343 | -78.85871 | 34002 ft | 485 kts | 283° |
| 2026-04-22 01:29 | 11.86114 | -78.92513 | 34003 ft | 485 kts | 283° |
| 2026-04-22 01:30 | 11.87883 | -78.99164 | 33999 ft | 485 kts | 283° |
| 2026-04-22 01:30 | 11.89643 | -79.05811 | 34002 ft | 485 kts | 283° |
| 2026-04-22 01:31 | 11.91386 | -79.12399 | 33996 ft | 485 kts | 283° |
| 2026-04-22 01:31 | 11.93140 | -79.19049 | 34001 ft | 485 kts | 283° |
| 2026-04-22 01:32 | 11.94885 | -79.25700 | 33993 ft | 485 kts | 283° |
| 2026-04-22 01:32 | 11.96640 | -79.32346 | 33999 ft | 485 kts | 283° |
| 2026-04-22 01:33 | 11.98394 | -79.38997 | 34003 ft | 485 kts | 283° |
| 2026-04-22 01:33 | 12.00151 | -79.45648 | 34003 ft | 485 kts | 283° |
| 2026-04-22 01:34 | 12.01901 | -79.52295 | 33997 ft | 485 kts | 283° |
| 2026-04-22 01:34 | 12.03636 | -79.58902 | 34005 ft | 485 kts | 283° |
| 2026-04-22 01:35 | 12.05372 | -79.65566 | 34006 ft | 485 kts | 283° |
| 2026-04-22 01:35 | 12.07113 | -79.72223 | 34008 ft | 485 kts | 283° |
| 2026-04-22 01:36 | 12.08862 | -79.78875 | 34006 ft | 485 kts | 283° |
| 2026-04-22 01:36 | 12.10611 | -79.85535 | 34006 ft | 485 kts | 283° |
| 2026-04-22 01:37 | 12.12353 | -79.92207 | 34001 ft | 486 kts | 283° |
| 2026-04-22 01:37 | 12.14076 | -79.98830 | 34001 ft | 486 kts | 283° |
| 2026-04-22 01:38 | 12.15820 | -80.05507 | 34010 ft | 486 kts | 283° |
| 2026-04-22 01:38 | 12.17565 | -80.12181 | 34013 ft | 486 kts | 283° |
| 2026-04-22 01:39 | 12.19299 | -80.18859 | 34006 ft | 486 kts | 283° |
| 2026-04-22 01:39 | 12.21034 | -80.25539 | 34010 ft | 487 kts | 283° |
| 2026-04-22 01:40 | 12.22759 | -80.32188 | 34011 ft | 487 kts | 283° |
| 2026-04-22 01:40 | 12.24494 | -80.38877 | 34015 ft | 487 kts | 283° |
| 2026-04-22 01:41 | 12.26219 | -80.45575 | 34013 ft | 487 kts | 283° |
| 2026-04-22 01:41 | 12.27943 | -80.52280 | 34011 ft | 487 kts | 283° |
| 2026-04-22 01:42 | 12.29678 | -80.58984 | 34016 ft | 488 kts | 283° |
| 2026-04-22 01:42 | 12.31422 | -80.65686 | 34018 ft | 488 kts | 283° |
| 2026-04-22 01:43 | 12.33138 | -80.72344 | 34012 ft | 488 kts | 283° |
| 2026-04-22 01:43 | 12.34863 | -80.79066 | 34018 ft | 488 kts | 283° |
| 2026-04-22 01:44 | 12.36591 | -80.85774 | 34020 ft | 488 kts | 283° |
| 2026-04-22 01:44 | 12.38324 | -80.92491 | 34014 ft | 488 kts | 283° |
| 2026-04-22 01:45 | 12.40048 | -80.99208 | 34017 ft | 488 kts | 283° |
| 2026-04-22 01:45 | 12.41772 | -81.05932 | 34014 ft | 489 kts | 283° |
| 2026-04-22 01:46 | 12.43483 | -81.12611 | 34014 ft | 488 kts | 283° |
| 2026-04-22 01:46 | 12.45200 | -81.19332 | 34019 ft | 488 kts | 283° |
| 2026-04-22 01:47 | 12.46923 | -81.26056 | 34012 ft | 489 kts | 283° |
| 2026-04-22 01:47 | 12.48643 | -81.32784 | 34008 ft | 489 kts | 283° |
| 2026-04-22 01:48 | 12.50346 | -81.39467 | 34017 ft | 488 kts | 284° |
| 2026-04-22 01:48 | 12.52061 | -81.46189 | 34014 ft | 488 kts | 283° |
| 2026-04-22 01:49 | 12.53774 | -81.52914 | 34009 ft | 489 kts | 283° |
| 2026-04-22 01:49 | 12.55486 | -81.59645 | 34012 ft | 488 kts | 283° |
| 2026-04-22 01:50 | 12.57194 | -81.66375 | 34015 ft | 488 kts | 283° |
| 2026-04-22 01:50 | 12.57977 | -81.73220 | 34012 ft | 485 kts | 265° |
| 2026-04-22 01:51 | 12.57323 | -81.80034 | 34009 ft | 484 kts | 263° |
| 2026-04-22 01:51 | 12.56646 | -81.86889 | 34014 ft | 485 kts | 262° |
| 2026-04-22 01:52 | 12.55984 | -81.93754 | 34009 ft | 484 kts | 264° |
| 2026-04-22 01:52 | 12.55314 | -82.00610 | 34016 ft | 484 kts | 263° |
| 2026-04-22 01:53 | 12.54630 | -82.07472 | 34011 ft | 484 kts | 263° |
| 2026-04-22 01:53 | 12.53951 | -82.14317 | 34014 ft | 484 kts | 262° |
| 2026-04-22 01:54 | 12.53282 | -82.21137 | 34011 ft | 484 kts | 263° |
| 2026-04-22 01:54 | 12.52608 | -82.27993 | 34016 ft | 484 kts | 263° |
| 2026-04-22 01:55 | 12.51935 | -82.34851 | 34021 ft | 484 kts | 263° |
| 2026-04-22 01:55 | 12.51248 | -82.41705 | 34017 ft | 485 kts | 263° |
| 2026-04-22 01:56 | 12.50558 | -82.48572 | 34022 ft | 485 kts | 263° |
| 2026-04-22 01:56 | 12.49874 | -82.55442 | 34024 ft | 486 kts | 264° |
| 2026-04-22 01:57 | 12.49193 | -82.62275 | 34028 ft | 485 kts | 262° |
| 2026-04-22 01:57 | 12.48495 | -82.69138 | 34027 ft | 485 kts | 263° |
| 2026-04-22 01:58 | 12.47801 | -82.76008 | 34022 ft | 485 kts | 263° |
| 2026-04-22 01:58 | 12.47124 | -82.82879 | 34025 ft | 486 kts | 264° |
| 2026-04-22 01:59 | 12.46490 | -82.89765 | 34024 ft | 486 kts | 264° |
| 2026-04-22 01:59 | 12.45869 | -82.96651 | 34023 ft | 486 kts | 264° |
| 2026-04-22 02:00 | 12.45229 | -83.03545 | 34020 ft | 486 kts | 264° |
| 2026-04-22 02:00 | 12.44572 | -83.10433 | 34017 ft | 487 kts | 264° |
| 2026-04-22 02:01 | 12.43922 | -83.17271 | 34026 ft | 487 kts | 264° |
| 2026-04-22 02:01 | 12.43274 | -83.24171 | 34021 ft | 487 kts | 264° |
| 2026-04-22 02:02 | 12.42618 | -83.31063 | 34018 ft | 487 kts | 264° |
| 2026-04-22 02:02 | 12.41959 | -83.37956 | 34019 ft | 487 kts | 264° |
| 2026-04-22 02:03 | 12.41305 | -83.44855 | 34015 ft | 487 kts | 264° |
| 2026-04-22 02:03 | 12.40660 | -83.51759 | 34023 ft | 487 kts | 264° |
| 2026-04-22 02:04 | 12.39673 | -83.62112 | 34012 ft | 488 kts | 264° |
| 2026-04-22 02:05 | 12.39003 | -83.68975 | 34016 ft | 488 kts | 264° |
| 2026-04-22 02:05 | 12.38335 | -83.75889 | 34021 ft | 489 kts | 264° |
| 2026-04-22 02:06 | 12.37670 | -83.82813 | 34016 ft | 489 kts | 264° |
| 2026-04-22 02:06 | 12.36997 | -83.89725 | 34019 ft | 489 kts | 264° |
| 2026-04-22 02:07 | 12.36321 | -83.96649 | 34036 ft | 488 kts | 264° |
| 2026-04-22 02:07 | 12.35659 | -84.03509 | 34041 ft | 488 kts | 264° |
| 2026-04-22 02:08 | 12.34986 | -84.10414 | 34033 ft | 488 kts | 264° |
| 2026-04-22 02:08 | 12.34309 | -84.17310 | 34031 ft | 487 kts | 264° |
| 2026-04-22 02:09 | 12.33631 | -84.24206 | 34024 ft | 487 kts | 264° |
| 2026-04-22 02:09 | 12.32954 | -84.31109 | 34023 ft | 488 kts | 264° |
| 2026-04-22 02:10 | 12.32277 | -84.38007 | 34019 ft | 488 kts | 264° |
| 2026-04-22 02:10 | 12.31597 | -84.44865 | 34019 ft | 488 kts | 263° |
| 2026-04-22 02:11 | 12.30913 | -84.51770 | 34013 ft | 488 kts | 264° |
| 2026-04-22 02:11 | 12.30231 | -84.58678 | 34014 ft | 488 kts | 264° |
| 2026-04-22 02:12 | 12.29546 | -84.65585 | 34017 ft | 488 kts | 264° |
| 2026-04-22 02:12 | 12.28858 | -84.72450 | 34005 ft | 489 kts | 263° |
| 2026-04-22 02:13 | 12.28163 | -84.79352 | 34004 ft | 489 kts | 263° |
| 2026-04-22 02:13 | 12.27471 | -84.86271 | 34002 ft | 489 kts | 263° |
| 2026-04-22 02:14 | 12.26783 | -84.93181 | 34003 ft | 489 kts | 263° |
| 2026-04-22 02:14 | 12.26085 | -85.00100 | 33998 ft | 489 kts | 264° |
| 2026-04-22 02:15 | 12.25377 | -85.07013 | 33995 ft | 489 kts | 263° |
| 2026-04-22 02:15 | 12.24682 | -85.13869 | 34004 ft | 488 kts | 263° |
| 2026-04-22 02:16 | 12.23976 | -85.20779 | 34001 ft | 488 kts | 263° |
| 2026-04-22 02:16 | 12.23270 | -85.27677 | 33994 ft | 488 kts | 263° |
| 2026-04-22 02:17 | 12.22565 | -85.34577 | 33999 ft | 488 kts | 263° |
| 2026-04-22 02:17 | 12.21861 | -85.41473 | 33995 ft | 488 kts | 263° |
| 2026-04-22 02:18 | 12.21167 | -85.48310 | 33998 ft | 487 kts | 263° |
| 2026-04-22 02:18 | 12.20463 | -85.55189 | 33996 ft | 486 kts | 263° |
| 2026-04-22 02:19 | 12.19747 | -85.62063 | 33987 ft | 486 kts | 263° |
| 2026-04-22 02:19 | 12.19150 | -85.67765 | 33984 ft | 486 kts | 263° |
| 2026-04-22 02:20 | 12.18438 | -85.74625 | 33965 ft | 485 kts | 263° |
| 2026-04-22 02:20 | 12.17728 | -85.81485 | 33967 ft | 485 kts | 263° |
| 2026-04-22 02:21 | 12.17018 | -85.88335 | 33982 ft | 485 kts | 263° |
| 2026-04-22 02:21 | 12.16302 | -85.95141 | 33982 ft | 485 kts | 263° |
| 2026-04-22 02:22 | 12.15583 | -86.01989 | 33982 ft | 484 kts | 263° |
| 2026-04-22 02:22 | 12.14867 | -86.08832 | 33977 ft | 484 kts | 264° |
| 2026-04-22 02:23 | 12.14564 | -86.15692 | 33974 ft | 485 kts | 275° |
| 2026-04-22 02:23 | 12.16224 | -86.22344 | 33979 ft | 485 kts | 293° |
| 2026-04-22 02:24 | 12.19038 | -86.28617 | 33942 ft | 486 kts | 294° |
| 2026-04-22 02:24 | 12.21845 | -86.34844 | 33946 ft | 486 kts | 294° |
| 2026-04-22 02:25 | 12.24683 | -86.41114 | 33954 ft | 486 kts | 294° |
| 2026-04-22 02:25 | 12.27515 | -86.47382 | 33970 ft | 485 kts | 294° |
| 2026-04-22 02:26 | 12.30336 | -86.53651 | 33956 ft | 485 kts | 294° |
| 2026-04-22 02:26 | 12.33161 | -86.59921 | 33953 ft | 486 kts | 294° |
| 2026-04-22 02:27 | 12.35949 | -86.66118 | 33954 ft | 472 kts | 294° |
| 2026-04-22 02:27 | 12.37297 | -86.69114 | 33958 ft | 457 kts | 294° |
| 2026-04-22 02:27 | 12.38613 | -86.72039 | 33961 ft | 452 kts | 294° |
| 2026-04-22 02:28 | 12.41223 | -86.77854 | 33959 ft | 447 kts | 294° |
| 2026-04-22 02:28 | 12.43822 | -86.83634 | 33922 ft | 448 kts | 294° |
| 2026-04-22 02:28 | 12.45123 | -86.86528 | 33660 ft | 448 kts | 294° |
| 2026-04-22 02:29 | 12.46422 | -86.89422 | 33401 ft | 448 kts | 294° |
| 2026-04-22 02:29 | 12.47723 | -86.92326 | 33150 ft | 448 kts | 294° |
| 2026-04-22 02:29 | 12.49020 | -86.95225 | 32903 ft | 449 kts | 294° |
| 2026-04-22 02:29 | 12.50324 | -86.98133 | 32662 ft | 449 kts | 294° |
| 2026-04-22 02:30 | 12.51609 | -87.00997 | 32416 ft | 449 kts | 294° |
| 2026-04-22 02:30 | 12.52912 | -87.03900 | 32172 ft | 450 kts | 294° |
| 2026-04-22 02:30 | 12.54217 | -87.06808 | 31930 ft | 449 kts | 294° |
| 2026-04-22 02:30 | 12.55518 | -87.09707 | 31691 ft | 448 kts | 294° |
| 2026-04-22 02:31 | 12.56815 | -87.12602 | 31455 ft | 446 kts | 294° |
| 2026-04-22 02:31 | 12.58107 | -87.15484 | 31219 ft | 445 kts | 294° |
| 2026-04-22 02:31 | 12.59397 | -87.18360 | 30986 ft | 443 kts | 294° |
| 2026-04-22 02:31 | 12.60681 | -87.21222 | 30753 ft | 442 kts | 294° |
| 2026-04-22 02:32 | 12.61962 | -87.24078 | 30528 ft | 440 kts | 295° |
| 2026-04-22 02:32 | 12.63239 | -87.26919 | 30292 ft | 439 kts | 295° |
| 2026-04-22 02:32 | 12.64509 | -87.29751 | 30064 ft | 437 kts | 295° |
| 2026-04-22 02:32 | 12.65773 | -87.32576 | 29809 ft | 435 kts | 294° |
| 2026-04-22 02:33 | 12.67030 | -87.35390 | 29549 ft | 433 kts | 294° |
| 2026-04-22 02:33 | 12.68263 | -87.38148 | 29279 ft | 431 kts | 294° |
| 2026-04-22 02:33 | 12.69512 | -87.40937 | 29015 ft | 430 kts | 294° |
| 2026-04-22 02:33 | 12.70758 | -87.43714 | 28757 ft | 428 kts | 294° |
| 2026-04-22 02:34 | 12.72000 | -87.46478 | 28502 ft | 427 kts | 294° |
| 2026-04-22 02:34 | 12.73236 | -87.49236 | 28238 ft | 425 kts | 294° |
| 2026-04-22 02:34 | 12.74463 | -87.51984 | 27994 ft | 424 kts | 294° |
| 2026-04-22 02:34 | 12.75682 | -87.54723 | 27741 ft | 422 kts | 294° |
| 2026-04-22 02:35 | 12.76899 | -87.57456 | 27503 ft | 420 kts | 294° |
| 2026-04-22 02:35 | 12.78111 | -87.60177 | 27255 ft | 418 kts | 294° |
| 2026-04-22 02:35 | 12.79301 | -87.62846 | 27015 ft | 417 kts | 294° |
| 2026-04-22 02:35 | 12.80505 | -87.65543 | 26772 ft | 416 kts | 294° |
| 2026-04-22 02:36 | 12.81709 | -87.68238 | 26533 ft | 415 kts | 294° |
| 2026-04-22 02:36 | 12.82905 | -87.70919 | 26296 ft | 414 kts | 294° |
| 2026-04-22 02:36 | 12.84094 | -87.73581 | 25968 ft | 407 kts | 294° |
| 2026-04-22 02:36 | 12.85254 | -87.76178 | 25509 ft | 396 kts | 294° |
| 2026-04-22 02:37 | 12.86390 | -87.78727 | 25066 ft | 392 kts | 294° |
| 2026-04-22 02:37 | 12.87518 | -87.81264 | 24626 ft | 389 kts | 294° |
| 2026-04-22 02:37 | 12.88635 | -87.83780 | 24190 ft | 387 kts | 294° |
| 2026-04-22 02:37 | 12.89745 | -87.86284 | 23747 ft | 385 kts | 294° |
| 2026-04-22 02:38 | 12.90846 | -87.88774 | 23253 ft | 383 kts | 294° |
| 2026-04-22 02:38 | 12.91940 | -87.91254 | 22801 ft | 379 kts | 294° |
| 2026-04-22 02:38 | 12.93009 | -87.93674 | 22371 ft | 376 kts | 294° |
| 2026-04-22 02:38 | 12.94081 | -87.96104 | 21925 ft | 373 kts | 294° |
| 2026-04-22 02:39 | 12.95147 | -87.98516 | 21484 ft | 370 kts | 294° |
| 2026-04-22 02:39 | 12.96207 | -88.00912 | 21044 ft | 368 kts | 295° |
| 2026-04-22 02:39 | 12.97261 | -88.03295 | 20594 ft | 366 kts | 295° |
| 2026-04-22 02:39 | 12.98311 | -88.05671 | 20146 ft | 364 kts | 295° |
| 2026-04-22 02:40 | 12.99351 | -88.08030 | 19708 ft | 363 kts | 295° |
| 2026-04-22 02:40 | 13.00383 | -88.10371 | 19317 ft | 360 kts | 295° |
| 2026-04-22 02:40 | 13.01414 | -88.12711 | 18873 ft | 359 kts | 295° |
| 2026-04-22 02:40 | 13.02437 | -88.15036 | 18438 ft | 358 kts | 295° |
| 2026-04-22 02:41 | 13.03459 | -88.17359 | 17963 ft | 357 kts | 295° |
| 2026-04-22 02:41 | 13.04466 | -88.19645 | 17524 ft | 355 kts | 295° |
| 2026-04-22 02:41 | 13.05481 | -88.21944 | 17096 ft | 353 kts | 295° |
| 2026-04-22 02:41 | 13.06487 | -88.24228 | 16670 ft | 350 kts | 295° |
| 2026-04-22 02:42 | 13.07486 | -88.26498 | 16245 ft | 348 kts | 295° |
| 2026-04-22 02:42 | 13.08479 | -88.28755 | 15834 ft | 347 kts | 296° |
| 2026-04-22 02:42 | 13.09469 | -88.31004 | 15419 ft | 345 kts | 296° |
| 2026-04-22 02:42 | 13.10446 | -88.33227 | 14997 ft | 339 kts | 296° |
| 2026-04-22 02:43 | 13.11414 | -88.35425 | 14586 ft | 338 kts | 296° |
| 2026-04-22 02:43 | 13.12377 | -88.37612 | 14185 ft | 337 kts | 296° |
| 2026-04-22 02:43 | 13.13342 | -88.39805 | 13772 ft | 336 kts | 295° |
| 2026-04-22 02:43 | 13.14302 | -88.41990 | 13326 ft | 335 kts | 295° |
| 2026-04-22 02:44 | 13.15254 | -88.44163 | 12900 ft | 333 kts | 295° |
| 2026-04-22 02:44 | 13.16344 | -88.46198 | 12490 ft | 329 kts | 307° |
| 2026-04-22 02:44 | 13.17729 | -88.48050 | 12085 ft | 326 kts | 309° |
| 2026-04-22 02:44 | 13.19119 | -88.49883 | 11681 ft | 325 kts | 309° |
| 2026-04-22 02:45 | 13.20487 | -88.51695 | 11250 ft | 319 kts | 309° |
| 2026-04-22 02:45 | 13.21846 | -88.53496 | 10836 ft | 318 kts | 309° |
| 2026-04-22 02:45 | 13.23197 | -88.55285 | 10425 ft | 317 kts | 309° |
| 2026-04-22 02:45 | 13.24522 | -88.57046 | 10052 ft | 306 kts | 309° |
| 2026-04-22 02:46 | 13.25805 | -88.58754 | 9697 ft | 297 kts | 309° |
| 2026-04-22 02:46 | 13.27073 | -88.60438 | 9565 ft | 299 kts | 309° |
| 2026-04-22 02:46 | 13.28345 | -88.62126 | 9309 ft | 300 kts | 309° |
| 2026-04-22 02:46 | 13.29605 | -88.63798 | 8787 ft | 299 kts | 310° |
| 2026-04-22 02:47 | 13.30863 | -88.65470 | 8281 ft | 295 kts | 309° |
| 2026-04-22 02:47 | 13.32123 | -88.67148 | 7768 ft | 298 kts | 310° |
| 2026-04-22 02:47 | 13.33379 | -88.68821 | 7280 ft | 294 kts | 310° |
| 2026-04-22 02:47 | 13.34624 | -88.70476 | 6744 ft | 290 kts | 310° |
| 2026-04-22 02:48 | 13.35862 | -88.72119 | 6242 ft | 293 kts | 310° |
| 2026-04-22 02:48 | 13.37106 | -88.73768 | 5744 ft | 290 kts | 310° |
| 2026-04-22 02:48 | 13.38331 | -88.75396 | 5188 ft | 286 kts | 309° |
| 2026-04-22 02:48 | 13.39542 | -88.77009 | 4695 ft | 286 kts | 309° |
| 2026-04-22 02:49 | 13.40754 | -88.78619 | 4356 ft | 278 kts | 309° |
| 2026-04-22 02:49 | 13.41894 | -88.80136 | 4221 ft | 259 kts | 309° |
| 2026-04-22 02:49 | 13.42958 | -88.81551 | 3816 ft | 254 kts | 309° |
| 2026-04-22 02:49 | 13.44018 | -88.82960 | 3498 ft | 241 kts | 309° |
| 2026-04-22 02:50 | 13.45011 | -88.84283 | 3351 ft | 227 kts | 309° |
| 2026-04-22 02:50 | 13.45949 | -88.85532 | 3226 ft | 214 kts | 309° |
| 2026-04-22 02:50 | 13.46833 | -88.86712 | 3123 ft | 203 kts | 309° |
| 2026-04-22 02:50 | 13.47667 | -88.87827 | 3037 ft | 191 kts | 308° |
| 2026-04-22 02:51 | 13.48452 | -88.88875 | 2957 ft | 179 kts | 307° |
| 2026-04-22 02:51 | 13.48985 | -88.89983 | 2752 ft | 168 kts | 285° |
| 2026-04-22 02:51 | 13.49099 | -88.91135 | 2573 ft | 158 kts | 266° |
| 2026-04-22 02:51 | 13.48859 | -88.92201 | 2416 ft | 151 kts | 250° |
| 2026-04-22 02:52 | 13.48500 | -88.93206 | 2222 ft | 148 kts | 251° |
| 2026-04-22 02:52 | 13.48151 | -88.94188 | 2036 ft | 146 kts | 251° |
| 2026-04-22 02:52 | 13.47808 | -88.95149 | 1851 ft | 143 kts | 252° |
| 2026-04-22 02:52 | 13.47469 | -88.96101 | 1670 ft | 141 kts | 254° |
| 2026-04-22 02:53 | 13.47129 | -88.97055 | 1466 ft | 143 kts | 252° |
| 2026-04-22 02:53 | 13.46787 | -88.98016 | 1297 ft | 142 kts | 252° |
| 2026-04-22 02:53 | 13.46451 | -88.98960 | 1111 ft | 139 kts | 251° |
| 2026-04-22 02:53 | 13.46114 | -88.99906 | 943 ft | 141 kts | 252° |
| 2026-04-22 02:54 | 13.45777 | -89.00841 | 795 ft | 142 kts | 253° |
| 2026-04-22 02:54 | 13.45439 | -89.01788 | 585 ft | 140 kts | 255° |
| 2026-04-22 02:54 | 13.45109 | -89.02717 | 405 ft | 140 kts | 252° |
| 2026-04-22 02:54 | 13.44770 | -89.03634 | 294 ft | 136 kts | 252° |
| 2026-04-22 02:55 | 13.44456 | -89.04552 | 154 ft | 134 kts | 251° |
| 2026-04-22 02:55 | 13.44137 | -89.05436 | 108 ft | 132 kts | 251° |
| 2026-04-22 02:55 | 13.43857 | -89.06232 | 91 ft | 102 kts | 250° |
| 2026-04-22 02:55 | 13.43676 | -89.06742 | 91 ft | 43 kts | 251° |
| 2026-04-22 02:56 | 13.43621 | -89.06899 | 90 ft | 14 kts | 259° |
| 2026-04-22 02:56 | 13.43645 | -89.06958 | 88 ft | 0 kts | 320° |
| 2026-04-22 02:57 | 13.43672 | -89.06974 | 90 ft | 8 kts | 335° |
| 2026-04-22 02:57 | 13.43711 | -89.06989 | 89 ft | 5 kts | 341° |
| 2026-04-22 02:57 | 13.43781 | -89.06961 | 93 ft | 17 kts | 55° |
| 2026-04-22 02:57 | 13.43823 | -89.06852 | 92 ft | 16 kts | 68° |
| 2026-04-22 02:58 | 13.43862 | -89.06747 | 92 ft | 16 kts | 69° |
| 2026-04-22 02:58 | 13.43898 | -89.06645 | 92 ft | 15 kts | 70° |
| 2026-04-22 02:58 | 13.43933 | -89.06547 | 92 ft | 14 kts | 70° |
| 2026-04-22 02:58 | 13.43967 | -89.06452 | 93 ft | 14 kts | 70° |
| 2026-04-22 02:59 | 13.43999 | -89.06361 | 94 ft | 13 kts | 71° |
| 2026-04-22 02:59 | 13.44029 | -89.06275 | 94 ft | 12 kts | 70° |
| 2026-04-22 02:59 | 13.44057 | -89.06193 | 95 ft | 12 kts | 70° |
| 2026-04-22 02:59 | 13.44086 | -89.06115 | 94 ft | 11 kts | 69° |
| 2026-04-22 03:00 | 13.44113 | -89.06042 | 92 ft | 11 kts | 69° |
| 2026-04-22 03:00 | 13.44139 | -89.05972 | 92 ft | 10 kts | 69° |
| 2026-04-22 03:00 | 13.44171 | -89.05914 | 92 ft | 9 kts | 38° |
| 2026-04-22 03:00 | 13.44226 | -89.05906 | 95 ft | 8 kts | 13° |
| 2026-04-22 03:01 | 13.44262 | -89.05869 | 92 ft | 7 kts | 62° |
| 2026-04-22 03:01 | 13.44284 | -89.05814 | 92 ft | 14 kts | 69° |
| 2026-04-22 03:01 | 13.44316 | -89.05738 | 94 ft | 5 kts | 41° |
| 2026-04-22 03:01 | 13.44347 | -89.05737 | 93 ft | 4 kts | 348° |
| 2026-04-22 03:02 | 13.44376 | -89.05746 | 103 ft | 4 kts | 341° |
| 2026-04-22 03:02 | 13.44397 | -89.05754 | 93 ft | 0 kts | 341° |